createdAt,value
2023-04-28T00:00:18.882Z,6.6
2023-04-28T00:01:34.183Z,7.3
2023-04-28T00:02:50.473Z,6.9
2023-04-28T00:04:06.767Z,6.8
2023-04-28T00:05:23.062Z,4.7
2023-04-28T00:06:39.356Z,5.4
2023-04-28T00:07:55.660Z,9.6
2023-04-28T00:09:11.956Z,5.6
2023-04-28T00:10:28.244Z,10.4
2023-04-28T00:11:44.540Z,7.9
2023-04-28T00:13:00.834Z,6.5
2023-04-28T00:14:17.136Z,7.8
2023-04-28T00:15:33.420Z,8.5
2023-04-28T00:16:49.726Z,5.7
2023-04-28T00:18:05.038Z,7.3
2023-04-28T00:19:21.320Z,6.8
2023-04-28T00:20:37.625Z,5.1
2023-04-28T00:21:53.923Z,7.1
2023-04-28T00:23:10.205Z,8.4
2023-04-28T00:24:26.508Z,7.8
2023-04-28T00:25:42.801Z,6.1
2023-04-28T00:26:59.107Z,7.8
2023-04-28T00:28:15.398Z,7
2023-04-28T00:29:31.694Z,7.2
2023-04-28T00:30:47.982Z,7.8
2023-04-28T00:32:04.281Z,7.3
2023-04-28T00:33:20.581Z,5.7
2023-04-28T00:34:35.873Z,7.3
2023-04-28T00:35:52.178Z,5.2
2023-04-28T00:37:08.466Z,6.6
2023-04-28T00:38:24.774Z,6.3
2023-04-28T00:39:41.069Z,6.4
2023-04-28T00:40:57.356Z,8
2023-04-28T00:42:13.645Z,7.9
2023-04-28T00:43:29.954Z,7.5
2023-04-28T00:44:46.232Z,7.3
2023-04-28T00:46:02.527Z,7
2023-04-28T00:47:18.823Z,6
2023-04-28T00:48:35.121Z,6.6
2023-04-28T00:49:51.415Z,6.7
2023-04-28T00:51:06.735Z,6.6
2023-04-28T00:52:23.027Z,5.9
2023-04-28T00:53:39.312Z,5.3
2023-04-28T00:54:55.614Z,7
2023-04-28T00:56:11.910Z,5.3
2023-04-28T00:57:28.197Z,12.6
2023-04-28T00:58:44.501Z,7.2
2023-04-28T01:00:00.800Z,8
2023-04-28T01:01:17.087Z,8.4
2023-04-28T01:02:33.377Z,7.8
2023-04-28T01:03:49.690Z,5.2
2023-04-28T01:05:05.967Z,7
2023-04-28T01:06:22.266Z,6.9
2023-04-28T01:07:37.580Z,6.3
2023-04-28T01:08:53.878Z,7.9
2023-04-28T01:10:10.171Z,7.2
2023-04-28T01:11:26.452Z,7.8
2023-04-28T01:12:42.767Z,8.2
2023-04-28T01:13:59.043Z,7.5
2023-04-28T01:15:14.371Z,7.7
2023-04-28T01:16:30.662Z,6.8
2023-04-28T01:17:46.955Z,8.2
2023-04-28T01:19:03.259Z,6.9
2023-04-28T01:20:19.549Z,6.2
2023-04-28T01:21:35.836Z,8.3
2023-04-28T01:22:52.147Z,5.9
2023-04-28T01:24:08.437Z,6.2
2023-04-28T01:25:24.736Z,8
2023-04-28T01:26:41.034Z,8.5
2023-04-28T01:27:57.324Z,7.6
2023-04-28T01:29:13.617Z,8.7
2023-04-28T01:30:29.914Z,7.7
2023-04-28T01:31:45.209Z,6.9
2023-04-28T01:33:01.507Z,6
2023-04-28T01:34:17.808Z,8
2023-04-28T01:35:34.096Z,8
2023-04-28T01:36:50.401Z,7.6
2023-04-28T01:38:06.693Z,7.5
2023-04-28T01:39:22.993Z,7
2023-04-28T01:40:39.276Z,11.5
2023-04-28T01:41:55.565Z,7.4
2023-04-28T01:43:11.877Z,7.8
2023-04-28T01:44:28.163Z,6.7
2023-04-28T01:45:44.455Z,6.7
2023-04-28T01:47:00.759Z,8.9
2023-04-28T01:48:16.067Z,7.6
2023-04-28T01:49:32.361Z,6.1
2023-04-28T01:50:48.650Z,9.7
2023-04-28T01:52:04.950Z,7.6
2023-04-28T01:54:37.530Z,10.7
2023-04-28T01:55:53.840Z,8.3
2023-04-28T01:57:10.139Z,9.4
2023-04-28T01:58:26.423Z,8.3
2023-04-28T01:59:42.730Z,9.1
2023-04-28T02:00:59.024Z,9.3
2023-04-28T02:02:15.316Z,8.8
2023-04-28T02:03:31.611Z,7.1
2023-04-28T02:04:46.915Z,12
2023-04-28T02:06:03.204Z,8
2023-04-28T02:07:19.486Z,9.7
2023-04-28T02:08:35.773Z,11.3
2023-04-28T02:09:52.073Z,11.6
2023-04-28T02:11:08.358Z,10.9
2023-04-28T02:12:24.654Z,13.2
2023-04-28T02:13:40.952Z,8.3
2023-04-28T02:14:57.245Z,9.6
2023-04-28T02:16:13.541Z,8.7
2023-04-28T02:17:29.840Z,8.9
2023-04-28T02:18:46.133Z,8.4
2023-04-28T02:20:02.437Z,10.1
2023-04-28T02:21:17.735Z,10.7
2023-04-28T02:22:34.022Z,12.9
2023-04-28T02:23:50.325Z,9
2023-04-28T02:25:06.630Z,12
2023-04-28T02:26:22.916Z,11.4
2023-04-28T02:27:39.215Z,9.1
2023-04-28T02:28:55.509Z,9.7
2023-04-28T02:30:11.800Z,9.1
2023-04-28T02:31:28.095Z,9.6
2023-04-28T02:32:44.382Z,8.4
2023-04-28T02:34:00.679Z,9.9
2023-04-28T02:35:16.991Z,9.4
2023-04-28T02:36:33.273Z,10.1
2023-04-28T02:37:48.595Z,11.1
2023-04-28T02:39:04.882Z,11.2
2023-04-28T02:40:21.173Z,9.9
2023-04-28T02:41:37.475Z,11.9
2023-04-28T02:42:53.760Z,10.6
2023-04-28T02:45:26.349Z,9.9
2023-04-28T02:46:42.644Z,10.4
2023-04-28T02:47:58.945Z,9.4
2023-04-28T02:49:15.233Z,11.1
2023-04-28T02:50:31.540Z,8.9
2023-04-28T02:51:47.838Z,10.1
2023-04-28T02:53:04.128Z,9.2
2023-04-28T02:54:19.447Z,11.6
2023-04-28T02:55:35.730Z,9.8
2023-04-28T02:56:52.018Z,8.8
2023-04-28T02:58:08.314Z,10.5
2023-04-28T02:59:24.616Z,9.9
2023-04-28T03:00:40.908Z,10.7
2023-04-28T03:01:57.200Z,8.7
2023-04-28T03:03:13.507Z,9.5
2023-04-28T03:04:29.789Z,10.3
2023-04-28T03:05:46.100Z,10
2023-04-28T03:07:02.391Z,9.3
2023-04-28T03:08:18.668Z,9.7
2023-04-28T03:09:34.974Z,9.1
2023-04-28T03:10:50.289Z,10.1
2023-04-28T03:12:06.578Z,8
2023-04-28T03:13:22.884Z,8.9
2023-04-28T03:14:39.168Z,10.8
2023-04-28T03:15:55.464Z,10.1
2023-04-28T03:17:11.759Z,10.3
2023-04-28T03:18:28.044Z,9.1
2023-04-28T03:19:44.353Z,9.4
2023-04-28T03:21:00.584Z,11.7
2023-04-28T03:22:16.879Z,10.5
2023-04-28T03:23:33.170Z,10.6
2023-04-28T03:24:49.475Z,7.9
2023-04-28T03:26:05.715Z,9.8
2023-04-28T03:27:20.976Z,9.1
2023-04-28T03:28:37.279Z,11.3
2023-04-28T03:29:53.579Z,11.7
2023-04-28T03:31:09.859Z,8.4
2023-04-28T03:32:26.171Z,9.8
2023-04-28T03:33:42.410Z,9.7
2023-04-28T03:34:58.710Z,8.9
2023-04-28T03:36:15.014Z,11.6
2023-04-28T03:37:31.291Z,13.8
2023-04-28T03:38:47.585Z,10.3
2023-04-28T03:40:03.842Z,10.9
2023-04-28T03:41:20.095Z,11.7
2023-04-28T03:42:36.331Z,9.6
2023-04-28T03:43:51.586Z,9.7
2023-04-28T03:45:07.816Z,10.3
2023-04-28T03:46:24.059Z,10.9
2023-04-28T03:47:40.298Z,11.5
2023-04-28T03:48:56.544Z,9.3
2023-04-28T03:50:12.780Z,8.1
2023-04-28T03:51:29.021Z,11.2
2023-04-28T03:52:45.268Z,11.2
2023-04-28T03:54:01.503Z,11.3
2023-04-28T03:55:17.747Z,10.9
2023-04-28T03:56:34.002Z,9.3
2023-04-28T03:57:50.234Z,13.4
2023-04-28T03:59:06.478Z,10.9
2023-04-28T04:00:21.741Z,10.9
2023-04-28T04:01:37.968Z,11.1
2023-04-28T04:02:54.208Z,11.4
2023-04-28T04:04:10.447Z,10.9
2023-04-28T04:05:26.691Z,9.7
2023-04-28T04:06:42.946Z,9.5
2023-04-28T04:07:59.178Z,12
2023-04-28T04:09:15.420Z,11.5
2023-04-28T04:10:31.649Z,12.1
2023-04-28T04:11:47.890Z,9.3
2023-04-28T04:13:04.147Z,14.6
2023-04-28T04:14:20.372Z,11
2023-04-28T04:15:36.630Z,12.1
2023-04-28T04:16:51.883Z,10
2023-04-28T04:18:08.123Z,10.2
2023-04-28T04:19:24.360Z,10.9
2023-04-28T04:20:40.602Z,14.7
2023-04-28T04:21:56.851Z,10.5
2023-04-28T04:23:13.079Z,9.8
2023-04-28T04:24:29.319Z,12.2
2023-04-28T04:25:45.560Z,11.2
2023-04-28T04:27:01.797Z,14.5
2023-04-28T04:28:18.051Z,11.1
2023-04-28T04:29:34.289Z,8.3
2023-04-28T04:30:50.532Z,9
2023-04-28T04:32:06.768Z,8.4
2023-04-28T04:33:22.019Z,9.7
2023-04-28T04:34:38.270Z,9.8
2023-04-28T04:35:54.502Z,10
2023-04-28T04:37:10.756Z,15.8
2023-04-28T04:38:26.987Z,13.4
2023-04-28T04:39:43.223Z,12.1
2023-04-28T04:40:59.469Z,9.7
2023-04-28T04:42:15.706Z,12.8
2023-04-28T04:43:31.952Z,8.9
2023-04-28T04:44:48.196Z,11.6
2023-04-28T04:46:04.426Z,9.2
2023-04-28T04:47:20.678Z,9.1
2023-04-28T04:48:36.921Z,9.9
2023-04-28T04:49:52.172Z,11.1
2023-04-28T04:51:08.422Z,13.1
2023-04-28T04:52:24.655Z,12.9
2023-04-28T04:53:40.897Z,10.6
2023-04-28T04:54:57.125Z,11.8
2023-04-28T04:56:13.376Z,9.6
2023-04-28T04:57:29.609Z,12.5
2023-04-28T04:58:45.854Z,11.6
2023-04-28T05:00:02.090Z,10.6
2023-04-28T05:01:18.346Z,11.2
2023-04-28T05:02:34.570Z,9.5
2023-04-28T05:03:50.809Z,10.9
2023-04-28T05:05:07.052Z,13.4
2023-04-28T05:06:22.313Z,13.4
2023-04-28T05:07:38.563Z,12.3
2023-04-28T05:08:54.790Z,9.4
2023-04-28T05:10:11.040Z,12.5
2023-04-28T05:11:27.286Z,10
2023-04-28T05:12:43.526Z,10.1
2023-04-28T05:13:59.764Z,13.2
2023-04-28T05:15:16.000Z,10.9
2023-04-28T05:16:32.235Z,12.3
2023-04-28T05:17:48.483Z,11.3
2023-04-28T05:19:04.723Z,11
2023-04-28T05:20:20.975Z,13.8
2023-04-28T05:21:37.197Z,11.4
2023-04-28T05:22:52.454Z,13.4
2023-04-28T05:24:08.701Z,9.8
2023-04-28T05:25:24.952Z,11.1
2023-04-28T05:26:41.191Z,10.5
2023-04-28T05:27:57.436Z,10.5
2023-04-28T05:29:13.670Z,10.6
2023-04-28T05:30:28.932Z,13
2023-04-28T05:31:45.160Z,12.5
2023-04-28T05:33:01.406Z,11.2
2023-04-28T05:34:17.645Z,11.2
2023-04-28T05:35:33.894Z,8.5
2023-04-28T05:36:50.127Z,10.9
2023-04-28T05:38:06.378Z,11.2
2023-04-28T05:39:22.614Z,11.9
2023-04-28T05:40:38.864Z,11.5
2023-04-28T05:41:55.100Z,12.2
2023-04-28T05:43:11.335Z,10.2
2023-04-28T05:44:27.570Z,11.2
2023-04-28T05:45:43.826Z,11.4
2023-04-28T05:46:59.079Z,11.4
2023-04-28T05:48:15.316Z,10.2
2023-04-28T05:49:31.554Z,10.6
2023-04-28T05:50:47.794Z,9.7
2023-04-28T05:52:04.043Z,11.6
2023-04-28T05:53:20.286Z,10.8
2023-04-28T05:54:36.518Z,11.9
2023-04-28T05:55:52.769Z,11.9
2023-04-28T05:57:08.999Z,10.2
2023-04-28T05:58:25.241Z,11.5
2023-04-28T05:59:41.491Z,11
2023-04-28T06:00:57.713Z,11.7
2023-04-28T06:02:13.965Z,15.7
2023-04-28T06:03:29.229Z,11.2
2023-04-28T06:04:45.469Z,10
2023-04-28T06:06:01.694Z,11.9
2023-04-28T06:07:17.000Z,13
2023-04-28T06:08:34.185Z,9.5
2023-04-28T06:09:50.423Z,12.8
2023-04-28T06:11:06.656Z,10.7
2023-04-28T06:12:22.899Z,10.3
2023-04-28T06:13:39.154Z,11.2
2023-04-28T06:14:55.386Z,8.7
2023-04-28T06:16:11.635Z,9.9
2023-04-28T06:17:27.874Z,12.2
2023-04-28T06:18:44.108Z,10.3
2023-04-28T06:19:59.362Z,12.2
2023-04-28T06:21:15.609Z,11.4
2023-04-28T06:22:31.834Z,8.4
2023-04-28T06:23:48.079Z,11.3
2023-04-28T06:25:04.321Z,10.9
2023-04-28T06:26:20.574Z,8.9
2023-04-28T06:27:36.807Z,10
2023-04-28T06:28:53.053Z,9.4
2023-04-28T06:30:09.280Z,9.5
2023-04-28T06:31:25.526Z,13.9
2023-04-28T06:32:41.769Z,9.7
2023-04-28T06:33:58.014Z,8.5
2023-04-28T06:35:14.248Z,11
2023-04-28T06:36:29.506Z,12
2023-04-28T06:37:45.752Z,9.3
2023-04-28T06:39:01.992Z,8.5
2023-04-28T06:40:18.223Z,9.5
2023-04-28T06:41:34.467Z,9.4
2023-04-28T06:42:50.722Z,12.6
2023-04-28T06:44:06.962Z,9.7
2023-04-28T06:45:23.184Z,9.7
2023-04-28T06:46:39.426Z,8.5
2023-04-28T06:47:55.671Z,8.5
2023-04-28T06:49:11.915Z,9
2023-04-28T06:50:28.153Z,8.3
2023-04-28T06:51:44.385Z,7.1
2023-04-28T06:52:59.647Z,9.2
2023-04-28T06:54:15.885Z,12.8
2023-04-28T06:55:32.138Z,11.1
2023-04-28T06:56:48.371Z,10.1
2023-04-28T06:58:04.611Z,9.9
2023-04-28T06:59:20.849Z,10.4
2023-04-28T07:00:37.098Z,8.7
2023-04-28T07:01:53.333Z,8.5
2023-04-28T07:03:09.563Z,8.6
2023-04-28T07:04:25.817Z,9.4
2023-04-28T07:05:42.063Z,8.6
2023-04-28T07:06:58.307Z,9.6
2023-04-28T07:08:14.542Z,9.9
2023-04-28T07:09:29.785Z,13.7
2023-04-28T07:10:46.030Z,10.6
2023-04-28T07:12:02.272Z,11.4
2023-04-28T07:13:18.521Z,8.4
2023-04-28T07:14:34.763Z,12.1
2023-04-28T07:15:50.997Z,11.5
2023-04-28T07:17:07.237Z,10.7
2023-04-28T07:18:23.485Z,10.2
2023-04-28T07:19:39.720Z,10.1
2023-04-28T07:20:55.963Z,9.9
2023-04-28T07:22:12.194Z,7.6
2023-04-28T07:23:28.430Z,11.3
2023-04-28T07:24:44.674Z,12.4
2023-04-28T07:25:59.944Z,7.5
2023-04-28T07:27:16.172Z,8.1
2023-04-28T07:29:48.664Z,10.5
2023-04-28T07:31:04.896Z,9.2
2023-04-28T07:32:21.125Z,6.5
2023-04-28T07:33:37.387Z,8.4
2023-04-28T07:34:53.617Z,9
2023-04-28T07:36:09.870Z,8.3
2023-04-28T07:37:26.100Z,10.3
2023-04-28T07:38:42.333Z,11.6
2023-04-28T07:39:58.586Z,8.6
2023-04-28T07:41:14.824Z,10
2023-04-28T07:42:30.077Z,8.9
2023-04-28T07:43:46.326Z,8.6
2023-04-28T07:45:02.564Z,9.1
2023-04-28T07:46:18.808Z,10.2
2023-04-28T07:47:35.048Z,12.4
2023-04-28T07:48:51.288Z,12
2023-04-28T07:50:07.530Z,7.7
2023-04-28T07:51:23.754Z,11.5
2023-04-28T07:52:39.995Z,9.6
2023-04-28T07:53:56.230Z,15.2
2023-04-28T07:55:12.482Z,10.7
2023-04-28T07:56:28.716Z,11.4
2023-04-28T07:57:44.970Z,9.9
2023-04-28T07:59:00.215Z,10
2023-04-28T08:00:16.471Z,8.5
2023-04-28T08:01:32.707Z,9.6
2023-04-28T08:02:48.933Z,9.2
2023-04-28T08:04:05.176Z,12.7
2023-04-28T08:05:21.428Z,11.2
2023-04-28T08:06:37.673Z,10.2
2023-04-28T08:07:53.906Z,8
2023-04-28T08:09:10.135Z,8.5
2023-04-28T08:10:26.389Z,10.6
2023-04-28T08:11:42.617Z,9
2023-04-28T08:12:58.869Z,10.3
2023-04-28T08:14:15.113Z,9.6
2023-04-28T08:15:30.364Z,12.2
2023-04-28T08:16:46.596Z,13.8
2023-04-28T08:18:02.852Z,7.5
2023-04-28T08:19:19.084Z,9.4
2023-04-28T08:20:35.321Z,12.8
2023-04-28T08:21:51.551Z,7.7
2023-04-28T08:23:07.803Z,8.4
2023-04-28T08:24:24.041Z,7.8
2023-04-28T08:25:40.295Z,9.9
2023-04-28T08:26:56.531Z,8.5
2023-04-28T08:28:12.774Z,8.9
2023-04-28T08:29:29.005Z,9
2023-04-28T08:30:45.241Z,8.1
2023-04-28T08:32:00.492Z,7
2023-04-28T08:33:16.745Z,7.9
2023-04-28T08:34:32.980Z,8.9
2023-04-28T08:35:49.214Z,7.8
2023-04-28T08:37:05.468Z,6.3
2023-04-28T08:38:21.712Z,12.5
2023-04-28T08:39:37.937Z,8.9
2023-04-28T08:40:54.180Z,8.1
2023-04-28T08:42:10.430Z,9
2023-04-28T08:43:26.666Z,7.9
2023-04-28T08:44:42.911Z,7.6
2023-04-28T08:45:59.152Z,8.2
2023-04-28T08:47:15.379Z,10.4
2023-04-28T08:48:30.650Z,6
2023-04-28T08:49:46.891Z,7.3
2023-04-28T08:51:03.118Z,9.7
2023-04-28T08:52:19.369Z,9.3
2023-04-28T08:53:35.613Z,5.9
2023-04-28T08:54:51.841Z,5.4
2023-04-28T08:56:08.081Z,7.9
2023-04-28T08:57:24.316Z,7.2
2023-04-28T08:58:40.569Z,8.4
2023-04-28T08:59:56.797Z,7.4
2023-04-28T09:01:13.057Z,9.3
2023-04-28T09:02:29.296Z,10.4
2023-04-28T09:03:45.524Z,10.1
2023-04-28T09:05:00.780Z,8.3
2023-04-28T09:06:17.031Z,9.1
2023-04-28T09:07:33.266Z,8.7
2023-04-28T09:08:49.497Z,9.3
2023-04-28T09:10:05.755Z,8.9
2023-04-28T09:11:21.990Z,7.9
2023-04-28T09:12:38.236Z,6
2023-04-28T09:13:54.464Z,10.1
2023-04-28T09:15:10.698Z,7.3
2023-04-28T09:16:26.939Z,6.7
2023-04-28T09:17:43.188Z,10.1
2023-04-28T09:18:59.438Z,7.6
2023-04-28T09:20:15.663Z,10.4
2023-04-28T09:21:30.916Z,7.8
2023-04-28T09:22:47.165Z,10.4
2023-04-28T09:24:03.404Z,7.6
2023-04-28T09:25:19.639Z,8.1
2023-04-28T09:26:35.876Z,7.4
2023-04-28T09:27:52.118Z,8.9
2023-04-28T09:29:08.357Z,9.6
2023-04-28T09:30:24.609Z,11.7
2023-04-28T09:31:40.839Z,10.3
2023-04-28T09:32:57.091Z,6.7
2023-04-28T09:34:13.330Z,9.2
2023-04-28T09:35:29.569Z,7.5
2023-04-28T09:36:45.817Z,8.9
2023-04-28T09:38:01.060Z,12.4
2023-04-28T09:39:17.298Z,8.9
2023-04-28T09:40:33.549Z,10
2023-04-28T09:41:49.778Z,9.6
2023-04-28T09:43:06.034Z,11.7
2023-04-28T09:44:22.260Z,9.5
2023-04-28T09:45:37.539Z,8.6
2023-04-28T09:46:53.767Z,8.5
2023-04-28T09:48:09.998Z,8.5
2023-04-28T09:49:26.239Z,7.4
2023-04-28T09:50:42.487Z,8.4
2023-04-28T09:51:58.740Z,8.5
2023-04-28T09:53:14.973Z,8.1
2023-04-28T09:54:31.204Z,10.4
2023-04-28T09:55:47.451Z,10
2023-04-28T09:57:03.682Z,8.3
2023-04-28T09:58:19.918Z,9.4
2023-04-28T09:59:36.167Z,9.2
2023-04-28T10:00:52.415Z,6.8
2023-04-28T10:02:07.678Z,7.8
2023-04-28T10:03:23.901Z,10.8
2023-04-28T10:04:40.142Z,8.6
2023-04-28T10:05:56.396Z,9.2
2023-04-28T10:07:12.626Z,13.9
2023-04-28T10:08:28.871Z,7.1
2023-04-28T10:09:45.108Z,9.9
2023-04-28T10:11:01.352Z,9.2
2023-04-28T10:12:17.592Z,8.1
2023-04-28T10:13:33.831Z,9.2
2023-04-28T10:14:50.078Z,10.5
2023-04-28T10:16:06.324Z,8.1
2023-04-28T10:17:22.548Z,7.7
2023-04-28T10:18:37.813Z,8.7
2023-04-28T10:19:54.040Z,10.7
2023-04-28T10:21:10.286Z,9.7
2023-04-28T10:22:26.537Z,10.6
2023-04-28T10:23:42.766Z,8.8
2023-04-28T10:24:59.007Z,12.3
2023-04-28T10:26:15.240Z,17.2
2023-04-28T10:27:31.481Z,10.5
2023-04-28T10:28:47.730Z,10.8
2023-04-28T10:30:03.981Z,10.4
2023-04-28T10:31:20.216Z,9.6
2023-04-28T10:32:36.461Z,8.1
2023-04-28T10:33:52.698Z,9.5
2023-04-28T10:35:08.942Z,8.5
2023-04-28T10:36:24.179Z,8.5
2023-04-28T10:37:40.435Z,9.7
2023-04-28T10:38:56.673Z,9.7
2023-04-28T10:40:12.910Z,9.6
2023-04-28T10:41:29.161Z,8.2
2023-04-28T10:42:45.386Z,8.7
2023-04-28T10:44:01.630Z,9.6
2023-04-28T10:45:17.872Z,9.3
2023-04-28T10:46:34.108Z,7.6
2023-04-28T10:47:50.352Z,7.7
2023-04-28T10:49:06.600Z,6.9
2023-04-28T10:50:22.844Z,9.9
2023-04-28T10:51:39.085Z,11.2
2023-04-28T10:52:54.323Z,7.9
2023-04-28T10:54:10.562Z,10.4
2023-04-28T10:55:26.802Z,9.5
2023-04-28T10:56:43.044Z,9.3
2023-04-28T10:57:59.287Z,9.1
2023-04-28T10:59:15.525Z,9.3
2023-04-28T11:00:31.776Z,8.8
2023-04-28T11:01:48.008Z,9.3
2023-04-28T11:03:04.255Z,10
2023-04-28T11:04:20.494Z,11.5
2023-04-28T11:05:36.737Z,10.2
2023-04-28T11:06:52.968Z,10.2
2023-04-28T11:08:09.214Z,10.9
2023-04-28T11:09:24.481Z,10.2
2023-04-28T11:10:40.711Z,13.6
2023-04-28T11:11:56.946Z,11.4
2023-04-28T11:13:13.195Z,11.3
2023-04-28T11:14:29.424Z,13.8
2023-04-28T11:15:45.677Z,10.8
2023-04-28T11:17:01.922Z,10.1
2023-04-28T11:18:18.161Z,8.4
2023-04-28T11:19:34.386Z,9.8
2023-04-28T11:20:50.632Z,8.7
2023-04-28T11:22:06.878Z,12.1
2023-04-28T11:23:23.122Z,9
2023-04-28T11:24:39.352Z,9.2
2023-04-28T11:25:54.610Z,10.8
2023-04-28T11:27:10.849Z,9.4
2023-04-28T11:28:27.090Z,9.6
2023-04-28T11:29:43.324Z,9.7
2023-04-28T11:30:59.584Z,9.9
2023-04-28T11:32:15.808Z,8.6
2023-04-28T11:33:32.053Z,8.4
2023-04-28T11:34:48.290Z,10.4
2023-04-28T11:36:04.525Z,9.2
2023-04-28T11:37:20.767Z,8.5
2023-04-28T11:38:37.017Z,10.3
2023-04-28T11:39:53.247Z,11.8
2023-04-28T11:41:09.485Z,9.3
2023-04-28T11:42:24.747Z,7.8
2023-04-28T11:43:40.999Z,9.6
2023-04-28T11:44:57.232Z,9.7
2023-04-28T11:46:13.478Z,9.6
2023-04-28T11:47:29.704Z,10.6
2023-04-28T11:48:45.955Z,13.9
2023-04-28T11:50:02.187Z,10.5
2023-04-28T11:51:18.429Z,9.4
2023-04-28T11:52:34.676Z,9.4
2023-04-28T11:53:50.906Z,11.4
2023-04-28T11:55:07.158Z,12.6
2023-04-28T11:56:23.395Z,10.3
2023-04-28T11:57:39.647Z,11.3
2023-04-28T11:58:54.886Z,8.9
2023-04-28T12:00:11.134Z,10.4
2023-04-28T12:01:27.376Z,11.2
2023-04-28T12:02:43.619Z,10.5
2023-04-28T12:03:59.846Z,8.9
2023-04-28T12:05:16.102Z,10
2023-04-28T12:06:32.338Z,10.2
2023-04-28T12:07:48.580Z,10.6
2023-04-28T12:09:04.824Z,9.1
2023-04-28T12:10:21.062Z,8.5
2023-04-28T12:11:37.290Z,10.2
2023-04-28T12:12:53.534Z,11.3
2023-04-28T12:14:09.781Z,8.9
2023-04-28T12:15:25.042Z,8.3
2023-04-28T12:16:41.273Z,13.5
2023-04-28T12:17:57.506Z,12.7
2023-04-28T12:19:13.753Z,10.3
2023-04-28T12:20:30.000Z,10.8
2023-04-28T12:21:46.224Z,9.5
2023-04-28T12:23:02.481Z,9.6
2023-04-28T12:24:18.727Z,10.8
2023-04-28T12:25:34.965Z,9.5
2023-04-28T12:26:51.208Z,9.2
2023-04-28T12:28:07.435Z,9
2023-04-28T12:29:23.670Z,9.6
2023-04-28T12:30:39.917Z,9.1
2023-04-28T12:31:55.169Z,11.6
2023-04-28T12:33:11.422Z,8
2023-04-28T12:34:27.664Z,7.9
2023-04-28T12:35:43.891Z,12
2023-04-28T12:37:00.127Z,9.9
2023-04-28T12:38:16.000Z,8.4
2023-04-28T12:39:32.623Z,10.9
2023-04-28T12:40:48.857Z,7.9
2023-04-28T12:42:05.099Z,8.2
2023-04-28T12:43:21.341Z,11.2
2023-04-28T12:44:37.576Z,9.9
2023-04-28T12:45:53.814Z,10.1
2023-04-28T12:47:10.064Z,8.2
2023-04-28T12:48:25.312Z,10.2
2023-04-28T12:49:41.564Z,10.8
2023-04-28T12:50:57.792Z,9.7
2023-04-28T12:52:14.024Z,5.9
2023-04-28T12:53:30.282Z,5.7
2023-04-28T12:54:46.520Z,7.3
2023-04-28T12:56:02.000Z,5.7
2023-04-28T12:57:19.003Z,6.6
2023-04-28T12:58:35.246Z,6.3
2023-04-28T12:59:51.483Z,7.2
2023-04-28T13:01:07.720Z,8.1
2023-04-28T13:02:23.955Z,7.9
2023-04-28T13:03:40.200Z,6.3
2023-04-28T13:04:55.443Z,8.8
2023-04-28T13:06:11.700Z,10.9
2023-04-28T13:07:27.935Z,5.6
2023-04-28T13:08:44.176Z,8.5
2023-04-28T13:10:00.408Z,10.3
2023-04-28T13:11:16.661Z,5.2
2023-04-28T13:12:32.886Z,7.6
2023-04-28T13:13:49.139Z,10.6
2023-04-28T13:15:05.368Z,5.6
2023-04-28T13:16:21.617Z,5.6
2023-04-28T13:17:37.867Z,5.7
2023-04-28T13:18:54.100Z,8
2023-04-28T13:20:10.340Z,7.6
2023-04-28T13:21:25.596Z,6.3
2023-04-28T13:22:41.826Z,8.4
2023-04-28T13:23:58.079Z,6.6
2023-04-28T13:25:14.307Z,5
2023-04-28T13:26:30.554Z,5.5
2023-04-28T13:27:46.795Z,6.1
2023-04-28T13:29:03.042Z,5.7
2023-04-28T13:30:19.269Z,7.3
2023-04-28T13:31:35.519Z,5.6
2023-04-28T13:32:51.751Z,6.8
2023-04-28T13:34:07.986Z,7
2023-04-28T13:35:24.226Z,5.3
2023-04-28T13:36:40.467Z,6.7
2023-04-28T13:37:55.728Z,6.6
2023-04-28T13:39:11.965Z,7.1
2023-04-28T13:40:28.221Z,5.4
2023-04-28T13:41:44.465Z,7.9
2023-04-28T13:43:00.694Z,4.9
2023-04-28T13:44:16.925Z,4.4
2023-04-28T13:45:33.167Z,5.2
2023-04-28T13:46:49.411Z,5.5
2023-04-28T13:48:05.644Z,5.8
2023-04-28T13:49:21.885Z,4.7
2023-04-28T13:50:38.132Z,7.1
2023-04-28T13:51:54.382Z,5.5
2023-04-28T13:53:10.603Z,5.7
2023-04-28T13:54:25.879Z,6.5
2023-04-28T13:55:42.112Z,6.4
2023-04-28T13:56:58.346Z,6.7
2023-04-28T13:58:14.585Z,6.2
2023-04-28T13:59:30.838Z,5.8
2023-04-28T14:00:46.096Z,7.4
2023-04-28T14:02:02.338Z,7.5
2023-04-28T14:03:18.573Z,6
2023-04-28T14:04:34.807Z,6.9
2023-04-28T14:05:51.060Z,6.6
2023-04-28T14:07:07.299Z,7
2023-04-28T14:08:23.533Z,6.5
2023-04-28T14:09:39.764Z,6.7
2023-04-28T14:10:56.009Z,6.3
2023-04-28T14:12:12.252Z,5.4
2023-04-28T14:13:28.492Z,5.2
2023-04-28T14:14:44.740Z,7.7
2023-04-28T14:16:00.984Z,6.1
2023-04-28T14:17:16.241Z,6.3
2023-04-28T14:18:32.480Z,7.3
2023-04-28T14:19:48.704Z,7.7
2023-04-28T14:21:04.947Z,8
2023-04-28T14:22:21.193Z,7
2023-04-28T14:23:37.429Z,10.6
2023-04-28T14:24:53.666Z,5.5
2023-04-28T14:26:09.913Z,6
2023-04-28T14:27:26.158Z,6.8
2023-04-28T14:28:42.397Z,8
2023-04-28T14:29:58.626Z,7.8
2023-04-28T14:31:14.876Z,6.6
2023-04-28T14:32:31.119Z,7.1
2023-04-28T14:33:46.372Z,7
2023-04-28T14:35:02.606Z,6.7
2023-04-28T14:36:18.845Z,8.5
2023-04-28T14:37:35.084Z,9
2023-04-28T14:38:51.330Z,9.2
2023-04-28T14:40:07.570Z,8.4
2023-04-28T14:41:23.804Z,7.1
2023-04-28T14:42:40.048Z,10.3
2023-04-28T14:43:56.290Z,6.8
2023-04-28T14:45:12.527Z,8
2023-04-28T14:46:28.768Z,5.8
2023-04-28T14:47:45.018Z,8.1
2023-04-28T14:49:01.258Z,6.2
2023-04-28T14:50:16.520Z,7.1
2023-04-28T14:51:32.752Z,7.3
2023-04-28T14:52:48.992Z,7.3
2023-04-28T14:54:05.222Z,6.7
2023-04-28T14:55:21.473Z,7
2023-04-28T14:56:37.708Z,6.3
2023-04-28T14:57:53.947Z,10.3
2023-04-28T14:59:10.189Z,6.8
2023-04-28T15:00:26.443Z,5.2
2023-04-28T15:01:42.673Z,6.8
2023-04-28T15:02:58.909Z,8.4
2023-04-28T15:04:15.154Z,6.3
2023-04-28T15:05:31.392Z,6.3
2023-04-28T15:06:46.657Z,6.6
2023-04-28T15:08:02.895Z,6.7
2023-04-28T15:09:19.139Z,6.6
2023-04-28T15:10:35.380Z,7.2
2023-04-28T15:11:51.618Z,7.8
2023-04-28T15:13:07.859Z,7.4
2023-04-28T15:14:24.085Z,6.2
2023-04-28T15:15:40.333Z,6.6
2023-04-28T15:16:56.568Z,7.9
2023-04-28T15:18:12.811Z,6
2023-04-28T15:19:29.045Z,5.7
2023-04-28T15:20:45.285Z,6.3
2023-04-28T15:22:01.534Z,4.7
2023-04-28T15:23:16.791Z,5.8
2023-04-28T15:24:33.029Z,7
2023-04-28T15:25:49.279Z,6.1
2023-04-28T15:27:05.519Z,6.5
2023-04-28T15:28:21.760Z,7.1
2023-04-28T15:29:37.994Z,6.7
2023-04-28T15:30:54.225Z,7.6
2023-04-28T15:32:10.480Z,5.9
2023-04-28T15:33:26.706Z,7.1
2023-04-28T15:34:42.953Z,10.3
2023-04-28T15:35:59.187Z,6.1
2023-04-28T15:37:15.439Z,12.4
2023-04-28T15:38:31.670Z,13.6
2023-04-28T15:39:46.938Z,10.7
2023-04-28T15:41:03.169Z,4.9
2023-04-28T15:42:19.422Z,6.4
2023-04-28T15:43:35.643Z,7.2
2023-04-28T15:44:51.893Z,6.2
2023-04-28T15:46:08.130Z,5.1
2023-04-28T15:47:24.370Z,5.2
2023-04-28T15:48:40.617Z,7.5
2023-04-28T15:49:56.851Z,7.2
2023-04-28T15:51:13.104Z,5.9
2023-04-28T15:52:29.344Z,4.9
2023-04-28T15:53:45.567Z,7.2
2023-04-28T15:55:01.824Z,4.8
2023-04-28T15:56:17.061Z,7.6
2023-04-28T15:57:33.314Z,5.7
2023-04-28T15:58:49.562Z,7.7
2023-04-28T16:00:05.791Z,5.2
2023-04-28T16:01:22.032Z,5.6
2023-04-28T16:02:38.267Z,5.3
2023-04-28T16:03:54.524Z,7.7
2023-04-28T16:05:10.757Z,6.8
2023-04-28T16:06:27.000Z,4.5
2023-04-28T16:07:43.233Z,4.5
2023-04-28T16:08:59.483Z,6.5
2023-04-28T16:10:15.710Z,7.9
2023-04-28T16:11:31.948Z,5.8
2023-04-28T16:12:47.216Z,7.6
2023-04-28T16:14:03.450Z,6.7
2023-04-28T16:15:19.700Z,6
2023-04-28T16:16:35.944Z,5.5
2023-04-28T16:17:52.168Z,6.4
2023-04-28T16:19:08.418Z,5.8
2023-04-28T16:20:24.652Z,7.9
2023-04-28T16:21:40.899Z,5.5
2023-04-28T16:22:57.145Z,5.8
2023-04-28T16:24:13.379Z,6.1
2023-04-28T16:25:29.619Z,8.4
2023-04-28T16:26:45.868Z,7.3
2023-04-28T16:28:02.095Z,5.3
2023-04-28T16:29:17.344Z,7.3
2023-04-28T16:30:33.594Z,6.6
2023-04-28T16:31:49.827Z,6.6
2023-04-28T16:33:06.068Z,7.9
2023-04-28T16:34:22.318Z,6.4
2023-04-28T16:35:38.569Z,8
2023-04-28T16:36:54.793Z,7.1
2023-04-28T16:38:11.032Z,8.1
2023-04-28T16:39:27.281Z,6.7
2023-04-28T16:40:43.521Z,6.6
2023-04-28T16:41:59.752Z,5.9
2023-04-28T16:43:15.999Z,6.5
2023-04-28T16:44:32.239Z,11.6
2023-04-28T16:45:47.504Z,6.7
2023-04-28T16:47:03.729Z,6.8
2023-04-28T16:48:19.968Z,8.5
2023-04-28T16:49:36.224Z,6.4
2023-04-28T16:50:52.454Z,7.7
2023-04-28T16:52:08.705Z,7.6
2023-04-28T16:53:24.929Z,7.5
2023-04-28T16:54:41.185Z,6.4
2023-04-28T16:55:57.416Z,6.7
2023-04-28T16:57:13.660Z,7.2
2023-04-28T16:58:29.891Z,7.4
2023-04-28T16:59:46.136Z,7.3
2023-04-28T17:01:02.373Z,7.9
2023-04-28T17:02:17.634Z,7.9
2023-04-28T17:03:33.872Z,7.5
2023-04-28T17:04:50.116Z,8
2023-04-28T17:06:06.350Z,6.9
2023-04-28T17:07:22.605Z,5.3
2023-04-28T17:08:38.843Z,7.6
2023-04-28T17:09:55.088Z,6.5
2023-04-28T17:11:11.312Z,5.7
2023-04-28T17:12:27.570Z,6.2
2023-04-28T17:13:43.793Z,8.1
2023-04-28T17:15:00.033Z,9.4
2023-04-28T17:16:16.288Z,8.5
2023-04-28T17:17:32.529Z,9.5
2023-04-28T17:18:47.787Z,6.1
2023-04-28T17:20:04.022Z,10.2
2023-04-28T17:21:20.261Z,14.1
2023-04-28T17:22:36.511Z,21.4
2023-04-28T17:23:52.731Z,16.9
2023-04-28T17:25:08.976Z,11.8
2023-04-28T17:26:25.216Z,8.2